This is the latest recevied weather packets stored in our database for station/object EA3ABN-15. If no packets are shown the sender has not sent any weather packets the latest 10 day(s).
| Time | Temp. | Humidity | Pressure | Rain* | Wind** | Luminosity | Snow |
|---|---|---|---|---|---|---|---|
| 1777625517 | 19.44° C | 46% | 1062.2 hPa | - | - | - | - |
| 1777624617 | 18.89° C | 47% | 1062.1 hPa | - | - | - | - |
| 1777623717 | 18.89° C | 47% | 1062 hPa | - | - | - | - |
| 1777622817 | 18.89° C | 48% | 1061.9 hPa | - | - | - | - |
| 1777621917 | 18.33° C | 47% | 1061.7 hPa | - | - | - | - |
| 1777621017 | 18.33° C | 48% | 1061.6 hPa | - | - | - | - |
| 1777620117 | 18.33° C | 48% | 1061.5 hPa | - | - | - | - |
| 1777619217 | 18.89° C | 47% | 1061.4 hPa | - | - | - | - |
| 1777618316 | 19.44° C | 45% | 1061.4 hPa | - | - | - | - |
| 1777617416 | 20.56° C | 42% | 1061.3 hPa | - | - | - | - |
| 1777616516 | 21.11° C | 41% | 1061.1 hPa | - | - | - | - |
| 1777615616 | 21.11° C | 43% | 1061 hPa | - | - | - | - |
| 1777614715 | 15° C | 56% | 1061.3 hPa | - | - | - | - |
| 1777613815 | 15° C | 57% | 1061.2 hPa | - | - | - | - |
| 1777612915 | 15° C | 57% | 1061 hPa | - | - | - | - |
| 1777612015 | 14.44° C | 58% | 1061 hPa | - | - | - | - |
| 1777611115 | 14.44° C | 58% | 1061 hPa | - | - | - | - |
| 1777610215 | 14.44° C | 58% | 1060.8 hPa | - | - | - | - |
| 1777609315 | 14.44° C | 58% | 1060.8 hPa | - | - | - | - |
| 1777608415 | 14.44° C | 58% | 1060.8 hPa | - | - | - | - |
| 1777607515 | 14.44° C | 58% | 1060.7 hPa | - | - | - | - |
| 1777606614 | 14.44° C | 58% | 1060.6 hPa | - | - | - | - |
| 1777605714 | 14.44° C | 59% | 1060.6 hPa | - | - | - | - |
| 1777604817 | 14.44° C | 59% | 1060.4 hPa | - | - | - | - |
| 1777603916 | 14.44° C | 59% | 1060.5 hPa | - | - | - | - |
* Rain since midnight (hover to see other rain measurements)
** Current wind speed in m/s (hover to see current wind gust speed)